createdAt,value
2022-12-20T00:01:22.956Z,11.77
2022-12-20T00:03:51.939Z,11.40
2022-12-20T00:06:18.954Z,10.63
2022-12-20T00:08:46.189Z,9.98
2022-12-20T00:11:12.997Z,10.30
2022-12-20T00:13:39.750Z,10.35
2022-12-20T00:16:13.451Z,10.90
2022-12-20T00:18:41.811Z,10.40
2022-12-20T00:21:11.431Z,10.20
2022-12-20T00:23:38.948Z,11.18
2022-12-20T00:26:08.621Z,10.00
2022-12-20T00:28:36.608Z,10.98
2022-12-20T00:31:04.686Z,10.88
2022-12-20T00:33:32.801Z,11.20
2022-12-20T00:35:59.439Z,11.35
2022-12-20T00:38:27.205Z,11.35
2022-12-20T00:41:08.492Z,10.43
2022-12-20T00:43:35.826Z,10.70
2022-12-20T00:46:02.909Z,10.18
2022-12-20T00:48:31.259Z,11.05
2022-12-20T00:51:03.784Z,10.95
2022-12-20T00:53:31.291Z,9.98
2022-12-20T00:55:58.227Z,10.52
2022-12-20T00:58:25.818Z,11.70
2022-12-20T01:00:56.514Z,10.98
2022-12-20T01:03:24.537Z,10.73
2022-12-20T01:05:59.433Z,10.38
2022-12-20T01:08:27.988Z,10.52
2022-12-20T01:11:08.653Z,11.38
2022-12-20T01:13:38.675Z,11.93
2022-12-20T01:16:27.270Z,10.80
2022-12-20T01:18:54.521Z,10.60
2022-12-20T01:21:23.966Z,9.98
2022-12-20T01:23:51.054Z,10.85
2022-12-20T01:26:19.682Z,10.23
2022-12-20T01:28:48.395Z,10.38
2022-12-20T01:31:17.846Z,10.15
2022-12-20T01:33:45.887Z,10.38
2022-12-20T01:36:16.686Z,10.32
2022-12-20T01:38:43.967Z,9.55
2022-12-20T01:41:18.962Z,11.13
2022-12-20T01:44:17.656Z,11.15
2022-12-20T01:46:46.556Z,10.75
2022-12-20T01:49:22.297Z,9.95
2022-12-20T01:51:53.923Z,11.05
2022-12-20T01:54:41.128Z,10.85
2022-12-20T01:57:14.509Z,10.55
2022-12-20T01:59:44.564Z,11.50
2022-12-20T02:02:13.714Z,9.32
2022-12-20T02:04:41.440Z,11.15
2022-12-20T02:07:10.384Z,12.20
2022-12-20T02:09:38.684Z,11.45
2022-12-20T02:12:15.538Z,10.13
2022-12-20T02:15:08.693Z,11.60
2022-12-20T02:18:09.496Z,11.23
2022-12-20T02:20:48.301Z,11.68
2022-12-20T02:23:26.387Z,11.40
2022-12-20T02:25:55.717Z,10.90
2022-12-20T02:28:32.786Z,11.05
2022-12-20T02:31:04.675Z,9.65
2022-12-20T02:33:31.388Z,10.35
2022-12-20T02:35:58.113Z,10.98
2022-12-20T02:38:34.324Z,10.75
2022-12-20T02:41:19.781Z,11.07
2022-12-20T02:44:09.918Z,10.13
2022-12-20T02:46:38.023Z,10.57
2022-12-20T02:49:11.404Z,10.75
2022-12-20T02:51:39.796Z,12.30
2022-12-20T02:54:06.467Z,9.70
2022-12-20T02:56:43.392Z,10.55
2022-12-20T02:59:21.822Z,11.68
2022-12-20T03:01:55.268Z,10.98
2022-12-20T03:04:29.187Z,10.48
2022-12-20T03:07:04.362Z,11.27
2022-12-20T03:09:33.025Z,10.93
2022-12-20T03:12:00.161Z,11.20
2022-12-20T03:14:27.117Z,10.90
2022-12-20T03:16:54.159Z,11.15
2022-12-20T03:19:21.407Z,10.90
2022-12-20T03:21:48.052Z,11.20
2022-12-20T03:24:15.040Z,11.98
2022-12-20T03:26:42.332Z,10.55
2022-12-20T03:29:09.511Z,11.25
2022-12-20T03:31:37.024Z,10.07
2022-12-20T03:34:04.476Z,10.23
2022-12-20T03:36:31.394Z,11.15
2022-12-20T03:38:58.145Z,12.00
2022-12-20T03:41:25.883Z,10.30
2022-12-20T03:43:52.768Z,10.88
2022-12-20T03:46:19.575Z,10.80
2022-12-20T03:48:46.214Z,10.90
2022-12-20T03:51:12.804Z,11.40
2022-12-20T03:53:39.514Z,10.68
2022-12-20T03:56:06.489Z,10.80
2022-12-20T03:58:33.180Z,10.48
2022-12-20T04:00:59.823Z,10.15
2022-12-20T04:03:26.670Z,11.25
2022-12-20T04:05:53.371Z,10.93
2022-12-20T04:08:20.011Z,10.43
2022-12-20T04:11:12.622Z,11.32
2022-12-20T04:13:39.215Z,10.35
2022-12-20T04:16:06.023Z,11.57
2022-12-20T04:18:32.673Z,11.48
2022-12-20T04:21:01.270Z,10.55
2022-12-20T04:23:27.887Z,10.25
2022-12-20T04:25:54.599Z,11.20
2022-12-20T04:28:21.277Z,9.45
2022-12-20T04:30:47.943Z,11.02
2022-12-20T04:33:14.575Z,11.18
2022-12-20T04:35:41.270Z,10.85
2022-12-20T04:38:07.943Z,11.15
2022-12-20T04:40:34.619Z,9.52
2022-12-20T04:43:01.335Z,10.90
2022-12-20T04:45:28.034Z,9.90
2022-12-20T04:47:54.648Z,10.68
2022-12-20T04:50:21.349Z,9.88
2022-12-20T04:53:06.707Z,8.85
2022-12-20T04:58:07.638Z,9.85
2022-12-20T05:00:34.826Z,9.73
2022-12-20T05:03:01.794Z,9.60
2022-12-20T05:05:28.989Z,9.85
2022-12-20T05:07:55.769Z,10.30
2022-12-20T05:10:22.743Z,9.95
2022-12-20T05:12:49.386Z,10.80
2022-12-20T05:15:16.065Z,10.00
2022-12-20T05:17:42.716Z,10.07
2022-12-20T05:20:10.605Z,8.75
2022-12-20T05:22:55.793Z,9.63
2022-12-20T05:25:41.115Z,9.20
2022-12-20T05:30:34.798Z,9.27
2022-12-20T05:33:01.461Z,9.38
2022-12-20T05:35:28.168Z,9.95
2022-12-20T05:37:55.075Z,9.25
2022-12-20T05:40:22.360Z,8.63
2022-12-20T05:42:48.955Z,9.13
2022-12-20T05:45:15.692Z,8.82
2022-12-20T05:47:42.369Z,9.93
2022-12-20T05:50:12.254Z,9.02
2022-12-20T05:52:43.469Z,9.55
2022-12-20T05:55:10.463Z,9.13
2022-12-20T05:57:37.208Z,9.80
2022-12-20T06:00:05.715Z,9.60
2022-12-20T06:02:32.521Z,9.43
2022-12-20T06:04:59.723Z,9.20
2022-12-20T06:07:28.935Z,9.93
2022-12-20T06:09:56.509Z,8.68
2022-12-20T06:12:23.534Z,9.82
2022-12-20T06:14:50.711Z,10.63
2022-12-20T06:17:17.549Z,9.52
2022-12-20T06:19:44.212Z,9.63
2022-12-20T06:22:10.954Z,9.15
2022-12-20T06:24:44.339Z,10.38
2022-12-20T06:27:12.762Z,9.60
2022-12-20T06:29:39.480Z,8.20
2022-12-20T06:32:06.285Z,8.43
2022-12-20T06:34:33.188Z,8.57
2022-12-20T06:36:59.847Z,8.30
2022-12-20T06:39:26.605Z,8.27
2022-12-20T06:41:53.211Z,7.93
2022-12-20T06:44:19.893Z,8.20
2022-12-20T06:46:46.556Z,7.93
2022-12-20T06:49:13.244Z,7.88
2022-12-20T06:51:39.904Z,6.90
2022-12-20T06:54:06.508Z,7.15
2022-12-20T06:56:39.244Z,7.80
2022-12-20T06:59:07.793Z,6.75
2022-12-20T07:01:34.568Z,7.05
2022-12-20T07:04:01.297Z,7.75
2022-12-20T07:06:29.315Z,7.00
2022-12-20T07:08:56.258Z,6.68
2022-12-20T07:11:23.022Z,7.65
2022-12-20T07:13:50.319Z,7.07
2022-12-20T07:16:17.048Z,7.15
2022-12-20T07:18:43.745Z,7.47
2022-12-20T07:21:10.402Z,6.80
2022-12-20T07:23:37.096Z,6.82
2022-12-20T07:26:04.178Z,7.90
2022-12-20T07:28:30.929Z,7.07
2022-12-20T07:31:01.690Z,6.95
2022-12-20T07:33:28.807Z,7.32
2022-12-20T07:36:07.144Z,6.75
2022-12-20T07:38:35.517Z,6.55
2022-12-20T07:41:08.174Z,6.68
2022-12-20T07:46:02.468Z,6.50
2022-12-20T07:48:29.221Z,6.53
2022-12-20T07:51:05.781Z,6.47
2022-12-20T07:53:36.985Z,7.32
2022-12-20T07:56:07.210Z,7.70
2022-12-20T07:58:35.309Z,7.05
2022-12-20T08:01:02.683Z,6.13
2022-12-20T08:03:36.704Z,6.10
2022-12-20T08:06:06.335Z,7.20
2022-12-20T08:08:35.957Z,6.63
2022-12-20T08:11:04.394Z,6.72
2022-12-20T08:13:32.967Z,6.47
2022-12-20T08:16:00.504Z,7.05
2022-12-20T08:18:27.192Z,6.28
2022-12-20T08:20:53.900Z,7.35
2022-12-20T08:23:20.497Z,6.85
2022-12-20T08:25:47.153Z,6.53
2022-12-20T08:28:13.817Z,7.25
2022-12-20T08:30:40.582Z,6.43
2022-12-20T08:33:07.317Z,6.68
2022-12-20T08:35:34.404Z,6.10
2022-12-20T08:38:01.192Z,7.00
2022-12-20T08:40:27.781Z,27.85
2022-12-20T08:42:54.689Z,12.57
2022-12-20T08:45:21.375Z,15.63
2022-12-20T08:47:48.025Z,9.52
2022-12-20T08:50:14.742Z,7.43
2022-12-20T08:52:41.401Z,7.07
2022-12-20T08:55:08.465Z,6.70
2022-12-20T08:57:35.281Z,7.70
2022-12-20T09:00:02.866Z,9.75
2022-12-20T09:02:29.677Z,6.65
2022-12-20T09:04:56.784Z,7.18
2022-12-20T09:07:23.425Z,8.82
2022-12-20T09:09:50.059Z,7.40
2022-12-20T09:12:16.734Z,6.10
2022-12-20T09:14:43.531Z,8.00
2022-12-20T09:17:10.146Z,6.85
2022-12-20T09:19:36.773Z,6.97
2022-12-20T09:22:04.237Z,6.00
2022-12-20T09:24:31.419Z,8.68
2022-12-20T09:26:58.038Z,6.55
2022-12-20T09:29:29.501Z,6.70
2022-12-20T09:32:01.308Z,7.25
2022-12-20T09:34:27.936Z,6.00
2022-12-20T09:36:55.104Z,7.43
2022-12-20T09:39:21.728Z,6.47
2022-12-20T09:41:48.841Z,4.93
2022-12-20T09:44:21.647Z,5.43
2022-12-20T09:46:56.900Z,6.05
2022-12-20T09:49:29.446Z,5.13
2022-12-20T09:54:55.983Z,4.35
2022-12-20T09:57:40.125Z,5.10
2022-12-20T10:00:18.677Z,5.30
2022-12-20T10:03:09.281Z,4.82
2022-12-20T10:05:48.409Z,4.70
2022-12-20T10:08:23.654Z,4.57
2022-12-20T10:10:59.520Z,4.80
2022-12-20T10:13:47.426Z,4.50
2022-12-20T10:16:28.710Z,4.88
2022-12-20T10:19:14.293Z,4.57
2022-12-20T10:21:57.862Z,4.55
2022-12-20T10:24:30.402Z,5.47
2022-12-20T10:27:02.914Z,4.70
2022-12-20T10:32:00.557Z,4.80
2022-12-20T10:34:33.329Z,4.28
2022-12-20T10:37:14.566Z,4.28
2022-12-20T10:39:51.946Z,5.22
2022-12-20T10:42:27.692Z,4.90
2022-12-20T10:44:55.894Z,5.07
2022-12-20T10:47:28.158Z,4.35
2022-12-20T10:50:15.741Z,4.53
2022-12-20T10:52:44.122Z,4.25
2022-12-20T10:55:41.166Z,4.30
2022-12-20T10:58:27.912Z,4.57
2022-12-20T11:01:12.677Z,4.50
2022-12-20T11:03:58.074Z,4.28
2022-12-20T11:06:29.154Z,4.53
2022-12-20T11:09:31.313Z,3.85
2022-12-20T11:12:12.631Z,3.97
2022-12-20T11:14:40.300Z,4.38
2022-12-20T11:17:35.978Z,4.10
2022-12-20T11:20:43.247Z,4.00
2022-12-20T11:23:18.450Z,4.15
2022-12-20T11:26:15.314Z,4.20
2022-12-20T11:29:29.637Z,4.75
2022-12-20T11:32:22.118Z,4.00
2022-12-20T11:35:11.400Z,4.00
2022-12-20T11:38:09.258Z,4.28
2022-12-20T11:40:47.963Z,3.55
2022-12-20T11:43:39.055Z,3.90
2022-12-20T11:47:01.303Z,4.13
2022-12-20T11:49:42.349Z,3.65
2022-12-20T11:52:26.780Z,3.67
2022-12-20T11:55:14.638Z,4.10
2022-12-20T11:58:17.340Z,3.80
2022-12-20T12:00:41.603Z,4.38
2022-12-20T12:03:18.942Z,4.15
2022-12-20T12:05:56.460Z,3.83
2022-12-20T12:08:31.302Z,3.63
2022-12-20T12:11:56.186Z,3.55
2022-12-20T12:14:16.584Z,3.15
2022-12-20T12:16:47.718Z,3.58
2022-12-20T12:19:15.709Z,3.60
2022-12-20T12:21:59.325Z,4.22
2022-12-20T12:24:39.390Z,2.65
2022-12-20T12:27:16.208Z,3.38
2022-12-20T12:29:43.583Z,3.53
2022-12-20T12:32:37.901Z,3.53
2022-12-20T12:35:44.067Z,3.35
2022-12-20T12:38:35.316Z,2.90
2022-12-20T12:41:39.728Z,3.30
2022-12-20T12:44:18.588Z,3.35
2022-12-20T12:49:21.441Z,3.20
2022-12-20T12:51:55.783Z,3.53
2022-12-20T12:54:37.514Z,3.30
2022-12-20T12:57:12.818Z,2.75
2022-12-20T12:59:39.622Z,3.20
2022-12-20T13:02:16.230Z,3.30
2022-12-20T13:04:59.602Z,3.50
2022-12-20T13:07:43.317Z,2.75
2022-12-20T13:10:09.988Z,3.00
2022-12-20T13:12:36.649Z,3.35
2022-12-20T13:15:23.340Z,3.33
2022-12-20T13:17:54.390Z,2.67
2022-12-20T13:20:26.057Z,2.70
2022-12-20T13:23:11.721Z,3.13
2022-12-20T13:25:48.251Z,3.50
2022-12-20T13:28:24.093Z,3.58
2022-12-20T13:30:54.436Z,3.22
2022-12-20T13:33:24.384Z,3.17
2022-12-20T13:36:15.735Z,3.40
2022-12-20T13:38:52.099Z,3.22
2022-12-20T13:41:36.739Z,3.03
2022-12-20T13:44:11.486Z,3.38
2022-12-20T13:47:10.183Z,3.30
2022-12-20T13:49:41.049Z,2.95
2022-12-20T13:52:11.424Z,3.20
2022-12-20T13:54:50.491Z,2.90
2022-12-20T13:57:43.286Z,2.90
2022-12-20T14:00:25.810Z,3.00
2022-12-20T14:02:54.146Z,3.45
2022-12-20T14:05:26.666Z,3.30
2022-12-20T14:10:29.390Z,3.85
2022-12-20T14:12:57.774Z,3.03
2022-12-20T14:15:33.265Z,3.70
2022-12-20T14:18:26.610Z,3.42
2022-12-20T14:21:01.757Z,3.50
2022-12-20T14:23:38.039Z,2.70
2022-12-20T14:26:05.122Z,3.20
2022-12-20T14:28:39.254Z,3.42
2022-12-20T14:31:22.049Z,2.97
2022-12-20T14:33:50.542Z,3.33
2022-12-20T14:36:17.159Z,2.90
2022-12-20T14:38:51.523Z,3.40
2022-12-20T14:41:31.965Z,3.42
2022-12-20T14:44:07.110Z,3.45
2022-12-20T14:46:35.873Z,3.45
2022-12-20T14:49:23.536Z,3.63
2022-12-20T14:51:51.090Z,3.70
2022-12-20T14:54:56.734Z,3.22
2022-12-20T14:57:20.046Z,3.58
2022-12-20T15:00:02.080Z,2.90
2022-12-20T15:02:43.880Z,3.25
2022-12-20T15:05:36.056Z,3.17
2022-12-20T15:08:12.192Z,2.90
2022-12-20T15:10:39.306Z,3.10
2022-12-20T15:13:12.436Z,3.17
2022-12-20T15:15:39.638Z,3.17
2022-12-20T15:18:15.470Z,3.13
2022-12-20T15:20:44.458Z,3.85
2022-12-20T15:23:19.642Z,3.58
2022-12-20T15:25:47.437Z,3.17
2022-12-20T15:28:20.301Z,2.80
2022-12-20T15:30:49.020Z,3.33
2022-12-20T15:33:18.871Z,3.42
2022-12-20T15:35:46.501Z,3.22
2022-12-20T15:38:25.480Z,3.05
2022-12-20T15:41:05.771Z,3.72
2022-12-20T15:43:39.072Z,3.45
2022-12-20T15:46:06.064Z,3.63
2022-12-20T15:48:32.759Z,3.55
2022-12-20T15:50:59.536Z,3.58
2022-12-20T15:53:30.993Z,3.58
2022-12-20T15:55:57.759Z,3.67
2022-12-20T15:58:25.507Z,3.05
2022-12-20T16:00:55.679Z,3.58
2022-12-20T16:03:25.408Z,3.70
2022-12-20T16:05:52.321Z,3.65
2022-12-20T16:08:19.105Z,3.90
2022-12-20T16:10:47.536Z,3.53
2022-12-20T16:13:22.370Z,3.28
2022-12-20T16:15:49.121Z,3.10
2022-12-20T16:18:16.317Z,3.67
2022-12-20T16:20:43.697Z,3.22
2022-12-20T16:23:24.434Z,3.50
2022-12-20T16:25:51.501Z,3.40
2022-12-20T16:28:18.573Z,3.33
2022-12-20T16:30:52.714Z,3.63
2022-12-20T16:33:21.354Z,3.17
2022-12-20T16:35:48.505Z,3.85
2022-12-20T16:38:15.300Z,4.10
2022-12-20T16:40:42.127Z,3.90
2022-12-20T16:43:15.452Z,4.00
2022-12-20T16:45:42.230Z,4.65
2022-12-20T16:48:08.893Z,4.28
2022-12-20T16:50:41.616Z,4.40
2022-12-20T16:53:12.865Z,4.13
2022-12-20T16:55:40.200Z,4.15
2022-12-20T16:58:07.237Z,3.65
2022-12-20T17:00:34.192Z,4.28
2022-12-20T17:03:01.143Z,4.40
2022-12-20T17:05:31.885Z,4.70
2022-12-20T17:07:58.639Z,4.78
2022-12-20T17:10:27.113Z,4.40
2022-12-20T17:12:54.430Z,4.88
2022-12-20T17:15:28.025Z,5.25
2022-12-20T17:17:55.460Z,4.07
2022-12-20T17:20:24.698Z,4.10
2022-12-20T17:25:38.198Z,3.92
2022-12-20T17:28:06.194Z,3.90
2022-12-20T17:30:32.891Z,4.15
2022-12-20T17:32:59.522Z,4.05
2022-12-20T17:35:30.563Z,4.13
2022-12-20T17:37:57.924Z,3.97
2022-12-20T17:40:27.309Z,4.13
2022-12-20T17:42:54.610Z,4.05
2022-12-20T17:45:26.366Z,3.70
2022-12-20T17:47:54.218Z,4.45
2022-12-20T17:50:21.804Z,4.20
2022-12-20T17:52:48.864Z,4.82
2022-12-20T17:55:27.143Z,4.40
2022-12-20T17:57:55.268Z,4.28
2022-12-20T18:00:34.746Z,4.40
2022-12-20T18:03:05.236Z,4.43
2022-12-20T18:05:32.032Z,4.53
2022-12-20T18:07:58.678Z,4.75
2022-12-20T18:10:25.383Z,4.43
2022-12-20T18:12:52.130Z,4.38
2022-12-20T18:15:20.232Z,4.50
2022-12-20T18:17:47.116Z,5.25
2022-12-20T18:20:14.630Z,4.90
2022-12-20T18:22:41.403Z,5.13
2022-12-20T18:25:08.741Z,4.85
2022-12-20T18:27:40.690Z,4.93
2022-12-20T18:30:10.654Z,4.70
2022-12-20T18:32:39.970Z,5.00
2022-12-20T18:35:07.766Z,5.18
2022-12-20T18:37:34.356Z,4.68
2022-12-20T18:40:03.996Z,5.20
2022-12-20T18:42:30.721Z,5.10
2022-12-20T18:44:57.396Z,3.88
2022-12-20T18:47:24.431Z,4.15
2022-12-20T18:49:51.470Z,5.70
2022-12-20T18:52:18.103Z,4.60
2022-12-20T18:54:44.890Z,4.60
2022-12-20T18:57:11.594Z,5.30
2022-12-20T18:59:38.248Z,4.75
2022-12-20T19:02:05.001Z,4.50
2022-12-20T19:04:31.702Z,4.00
2022-12-20T19:06:58.373Z,4.90
2022-12-20T19:09:25.129Z,5.45
2022-12-20T19:11:56.989Z,4.80
2022-12-20T19:14:24.409Z,4.57
2022-12-20T19:16:51.839Z,4.47
2022-12-20T19:19:18.664Z,4.65
2022-12-20T19:21:45.393Z,4.68
2022-12-20T19:24:12.310Z,4.70
2022-12-20T19:26:39.663Z,4.82
2022-12-20T19:29:06.782Z,5.05
2022-12-20T19:31:36.342Z,5.10
2022-12-20T19:34:06.640Z,4.47
2022-12-20T19:36:42.035Z,5.00
2022-12-20T19:39:14.532Z,4.57
2022-12-20T19:44:08.799Z,4.22
2022-12-20T19:46:35.753Z,5.05
2022-12-20T19:49:02.439Z,3.95
2022-12-20T19:51:29.569Z,3.95
2022-12-20T19:53:58.146Z,4.72
2022-12-20T19:56:27.330Z,4.90
2022-12-20T19:58:55.342Z,3.72
2022-12-20T20:01:27.085Z,4.25
2022-12-20T20:03:56.145Z,4.38
2022-12-20T20:06:23.524Z,4.53
2022-12-20T20:08:50.461Z,4.97
2022-12-20T20:11:19.441Z,4.50
2022-12-20T20:13:46.397Z,4.50
2022-12-20T20:16:16.873Z,4.85
2022-12-20T20:18:47.157Z,4.93
2022-12-20T20:21:21.367Z,4.65
2022-12-20T20:23:50.156Z,4.68
2022-12-20T20:26:20.381Z,5.15
2022-12-20T20:28:48.081Z,5.65
2022-12-20T20:31:16.946Z,4.78
2022-12-20T20:33:44.125Z,5.13
2022-12-20T20:36:14.815Z,4.47
2022-12-20T20:38:41.667Z,4.43
2022-12-20T20:41:09.280Z,4.78
2022-12-20T20:43:39.384Z,5.10
2022-12-20T20:46:09.711Z,5.50
2022-12-20T20:48:37.346Z,5.07
2022-12-20T20:51:05.529Z,4.55
2022-12-20T20:53:34.113Z,4.95
2022-12-20T20:56:02.375Z,5.13
2022-12-20T20:58:29.852Z,5.63
2022-12-20T21:00:58.806Z,4.95
2022-12-20T21:03:27.317Z,4.57
2022-12-20T21:08:41.405Z,5.20
2022-12-20T21:11:09.181Z,5.20
2022-12-20T21:13:35.959Z,5.38
2022-12-20T21:16:16.130Z,5.88
2022-12-20T21:18:43.263Z,5.85
2022-12-20T21:21:11.669Z,6.07
2022-12-20T21:23:39.727Z,5.82
2022-12-20T21:26:07.517Z,5.25
2022-12-20T21:28:34.470Z,6.00
2022-12-20T21:31:02.366Z,5.85
2022-12-20T21:33:29.587Z,5.80
2022-12-20T21:36:07.730Z,5.93
2022-12-20T21:38:34.922Z,6.70
2022-12-20T21:41:06.963Z,5.85
2022-12-20T21:43:33.973Z,6.05
2022-12-20T21:46:01.073Z,6.03
2022-12-20T21:48:29.665Z,6.05
2022-12-20T21:51:06.404Z,6.75
2022-12-20T21:53:33.300Z,6.65
2022-12-20T21:56:00.854Z,6.22
2022-12-20T21:58:29.680Z,6.47
2022-12-20T22:00:57.090Z,6.35
2022-12-20T22:03:24.996Z,6.82
2022-12-20T22:05:55.576Z,7.03
2022-12-20T22:08:23.627Z,6.20
2022-12-20T22:11:09.497Z,6.13
2022-12-20T22:13:41.053Z,7.75
2022-12-20T22:16:17.003Z,7.82
2022-12-20T22:18:47.781Z,6.95
2022-12-20T22:21:15.442Z,7.63
2022-12-20T22:23:42.595Z,7.78
2022-12-20T22:26:12.044Z,7.43
2022-12-20T22:28:40.138Z,7.57
2022-12-20T22:31:08.734Z,8.02
2022-12-20T22:33:36.164Z,7.32
2022-12-20T22:36:03.369Z,8.57
2022-12-20T22:38:30.072Z,8.23
2022-12-20T22:41:13.575Z,7.95
2022-12-20T22:43:41.333Z,8.18
2022-12-20T22:46:10.472Z,8.65
2022-12-20T22:48:38.223Z,9.35
2022-12-20T22:51:21.856Z,8.82
2022-12-20T22:53:49.201Z,8.80
2022-12-20T22:56:17.793Z,8.88
2022-12-20T22:58:44.677Z,8.77
2022-12-20T23:01:15.298Z,8.40
2022-12-20T23:03:42.548Z,8.75
2022-12-20T23:06:12.934Z,10.43
2022-12-20T23:08:39.883Z,8.45
2022-12-20T23:11:37.818Z,9.25
2022-12-20T23:14:23.654Z,10.27
2022-12-20T23:16:50.641Z,9.60
2022-12-20T23:19:17.448Z,9.55
2022-12-20T23:22:02.837Z,10.02
2022-12-20T23:24:29.484Z,9.57
2022-12-20T23:26:56.401Z,10.35
2022-12-20T23:29:23.432Z,9.90
2022-12-20T23:31:50.213Z,11.27
2022-12-20T23:34:16.903Z,10.25
2022-12-20T23:36:43.612Z,10.27
2022-12-20T23:39:10.274Z,10.93
2022-12-20T23:41:36.905Z,11.18
2022-12-20T23:44:05.099Z,10.77
2022-12-20T23:46:31.864Z,11.02
2022-12-20T23:48:58.585Z,11.15
2022-12-20T23:51:25.159Z,10.73
2022-12-20T23:53:52.730Z,10.65
2022-12-20T23:56:21.628Z,10.52
2022-12-20T23:58:55.110Z,11.15
